createdAt,value
2018-03-03T00:00:35.055Z,98020.98
2018-03-03T00:03:02.603Z,98020.50
2018-03-03T00:05:30.197Z,98021.91
2018-03-03T00:07:58.667Z,98017.98
2018-03-03T00:10:26.225Z,97997.77
2018-03-03T00:12:53.831Z,98008.83
2018-03-03T00:15:21.761Z,97996.23
2018-03-03T00:17:49.307Z,97982.13
2018-03-03T00:20:17.064Z,97966.45
2018-03-03T00:22:44.615Z,97970.67
2018-03-03T00:25:12.672Z,97975.52
2018-03-03T00:27:40.269Z,97975.91
2018-03-03T00:30:07.832Z,97959.86
2018-03-03T00:32:35.612Z,97956.16
2018-03-03T00:35:03.164Z,97952.41
2018-03-03T00:37:31.132Z,97955.50
2018-03-03T00:39:58.685Z,97975.52
2018-03-03T00:42:26.289Z,97984.75
2018-03-03T00:44:53.848Z,97983.83
2018-03-03T00:47:22.381Z,97977.95
2018-03-03T00:49:49.927Z,97977.06
2018-03-03T00:52:17.484Z,97977.77
2018-03-03T00:54:45.913Z,97992.58
2018-03-03T00:57:13.463Z,97995.83
2018-03-03T00:59:41.078Z,97982.89
2018-03-03T01:02:08.632Z,97965.56
2018-03-03T01:04:36.175Z,97942.47
2018-03-03T01:07:03.991Z,97952.09
2018-03-03T01:09:31.538Z,97939.39
2018-03-03T01:11:59.124Z,97958.86
2018-03-03T01:14:26.697Z,97922.84
2018-03-03T01:16:55.532Z,97925.27
2018-03-03T01:19:23.075Z,97886.50
2018-03-03T01:21:51.347Z,97903.70
2018-03-03T01:24:18.947Z,97883.77
2018-03-03T01:26:46.984Z,97893.36
2018-03-03T01:29:15.371Z,97896.50
2018-03-03T01:31:42.914Z,97883.73
2018-03-03T01:34:10.502Z,97903.58
2018-03-03T01:36:38.107Z,97915.16
2018-03-03T01:39:05.996Z,97915.14
2018-03-03T01:41:33.549Z,97921.56
2018-03-03T01:44:01.157Z,97921.47
2018-03-03T01:46:29.199Z,97900.62
2018-03-03T01:48:57.974Z,97884.55
2018-03-03T01:51:37.403Z,97899.32
2018-03-03T01:54:05.002Z,97919.55
2018-03-03T01:56:32.566Z,97914.06
2018-03-03T01:59:00.155Z,97878.38
2018-03-03T02:01:27.999Z,97857.08
2018-03-03T02:03:55.596Z,97939.03
2018-03-03T02:06:23.147Z,97913.45
2018-03-03T02:08:50.861Z,97962.62
2018-03-03T02:11:18.457Z,97927.06
2018-03-03T02:13:47.247Z,97953.44
2018-03-03T02:16:14.841Z,97935.27
2018-03-03T02:18:42.448Z,97922.66
2018-03-03T02:21:10.540Z,97951.34
2018-03-03T02:23:38.141Z,97905.94
2018-03-03T02:26:05.746Z,97916.61
2018-03-03T02:28:33.291Z,97853.63
2018-03-03T02:31:00.896Z,97846.50
2018-03-03T02:33:28.779Z,97834.81
2018-03-03T02:35:56.340Z,97868.12
2018-03-03T02:38:23.897Z,97878.58
2018-03-03T02:40:51.496Z,97880.34
2018-03-03T02:43:19.365Z,97868.40
2018-03-03T02:45:46.948Z,97856.04
2018-03-03T02:48:15.202Z,97850.23
2018-03-03T02:50:42.908Z,97853.91
2018-03-03T02:53:10.516Z,97836.40
2018-03-03T02:55:38.077Z,97842.71
2018-03-03T02:58:05.673Z,97847.55
2018-03-03T03:00:33.282Z,97830.06
2018-03-03T03:03:00.888Z,97828.38
2018-03-03T03:05:28.557Z,97851.08
2018-03-03T03:07:56.545Z,97872.33
2018-03-03T03:10:24.136Z,97889.48
2018-03-03T03:12:51.735Z,97907.73
2018-03-03T03:15:19.296Z,97955.33
2018-03-03T03:17:47.138Z,97973.66
2018-03-03T03:20:14.687Z,97974.73
2018-03-03T03:22:42.251Z,97984.16
2018-03-03T03:25:09.878Z,97975.94
2018-03-03T03:27:37.499Z,97988.75
2018-03-03T03:30:05.061Z,97993.47
2018-03-03T03:32:32.656Z,98003.27
2018-03-03T03:35:00.620Z,98005.72
2018-03-03T03:37:28.197Z,98001.05
2018-03-03T03:39:55.787Z,98042.63
2018-03-03T03:42:23.349Z,98042.80
2018-03-03T03:44:50.936Z,98038.57
2018-03-03T03:47:18.487Z,98024.19
2018-03-03T03:49:46.084Z,98020.95
2018-03-03T03:52:13.628Z,97991.53
2018-03-03T03:54:41.228Z,97980.84
2018-03-03T03:57:09.173Z,97964.78
2018-03-03T03:59:36.724Z,97947.58
2018-03-03T04:02:04.319Z,97954.02
2018-03-03T04:04:31.867Z,97951.84
2018-03-03T04:06:59.450Z,97934.55
2018-03-03T04:09:27.868Z,97925.84
2018-03-03T04:11:55.461Z,97927.55
2018-03-03T04:14:24.027Z,97929.11
2018-03-03T04:16:52.105Z,97927.65
2018-03-03T04:19:19.703Z,97923.17
2018-03-03T04:21:47.761Z,97911.73
2018-03-03T04:24:15.335Z,97910.15
2018-03-03T04:26:42.957Z,97901.50
2018-03-03T04:29:11.350Z,97891.06
2018-03-03T04:31:39.093Z,97915.27
2018-03-03T04:34:06.683Z,97920.66
2018-03-03T04:36:34.224Z,97923.64
2018-03-03T04:39:01.839Z,97924.39
2018-03-03T04:41:29.392Z,97909.66
2018-03-03T04:43:56.989Z,97906.66
2018-03-03T04:46:25.005Z,97901.77
2018-03-03T04:48:52.616Z,97902.55
2018-03-03T04:51:20.714Z,97885.42
2018-03-03T04:53:48.336Z,97888.14
2018-03-03T04:56:16.146Z,97883.15
2018-03-03T05:01:51.602Z,97878.98
2018-03-03T05:07:40.737Z,97861.62
2018-03-03T05:10:08.340Z,97874.98
2018-03-03T05:12:39.530Z,97871.56
2018-03-03T05:18:32.033Z,97873.35
2018-03-03T05:24:09.131Z,97919.23
2018-03-03T05:26:42.125Z,97906.36
2018-03-03T05:32:21.200Z,97924.42
2018-03-03T05:34:54.346Z,97931.48
2018-03-03T05:37:27.487Z,97929.88
2018-03-03T05:40:00.799Z,97923.54
2018-03-03T05:42:33.985Z,97934.05
2018-03-03T05:48:21.096Z,97931.69
2018-03-03T05:54:02.515Z,97932.39
2018-03-03T05:59:51.862Z,97935.65
2018-03-03T06:05:28.665Z,97931.41
2018-03-03T06:08:01.676Z,97940.70
2018-03-03T06:10:31.815Z,97952.94
2018-03-03T06:12:59.412Z,97949.88
2018-03-03T06:15:26.964Z,97957.94
2018-03-03T06:17:55.455Z,97969.17
2018-03-03T06:20:23.041Z,97978.49
2018-03-03T06:22:51.103Z,97974.34
2018-03-03T06:25:18.695Z,97980.78
2018-03-03T06:27:46.283Z,97982.55
2018-03-03T06:30:13.826Z,97982.84
2018-03-03T06:32:41.419Z,97990.25
2018-03-03T06:35:08.959Z,97979.66
2018-03-03T06:37:36.522Z,97985.38
2018-03-03T06:40:05.108Z,97994.62
2018-03-03T06:42:32.764Z,98004.11
2018-03-03T06:45:00.325Z,97989.94
2018-03-03T06:47:27.893Z,97975.38
2018-03-03T06:49:55.489Z,97980.92
2018-03-03T06:52:23.887Z,97973.42
2018-03-03T06:54:51.466Z,97968.83
2018-03-03T06:57:19.064Z,97965.55
2018-03-03T06:59:46.612Z,97958.95
2018-03-03T07:02:14.212Z,97972.03
2018-03-03T07:04:41.804Z,97971.44
2018-03-03T07:07:09.360Z,97979.83
2018-03-03T07:09:36.961Z,97965.66
2018-03-03T07:12:04.548Z,97978.41
2018-03-03T07:17:34.835Z,97991.66
2018-03-03T07:20:03.201Z,97997.10
2018-03-03T07:22:30.879Z,98007.53
2018-03-03T07:24:58.417Z,98003.61
2018-03-03T07:27:26.561Z,97995.95
2018-03-03T07:29:55.849Z,98000.50
2018-03-03T07:32:23.407Z,98008.69
2018-03-03T07:34:50.988Z,98000.35
2018-03-03T07:37:18.579Z,97999.43
2018-03-03T07:39:46.123Z,97989.70
2018-03-03T07:42:13.962Z,97981.69
2018-03-03T07:44:41.516Z,97984.76
2018-03-03T07:47:09.327Z,98001.40
2018-03-03T07:49:36.923Z,98003.63
2018-03-03T07:52:04.868Z,98008.95
2018-03-03T07:54:33.081Z,98010.53
2018-03-03T07:57:13.516Z,98002.54
2018-03-03T07:59:41.071Z,98004.44
2018-03-03T08:02:09.400Z,97999.31
2018-03-03T08:04:37.482Z,97996.66
2018-03-03T08:07:05.068Z,97993.70
2018-03-03T08:09:33.383Z,97994.65
2018-03-03T08:12:01.538Z,97992.47
2018-03-03T08:14:29.919Z,98004.74
2018-03-03T08:16:57.471Z,98005.84
2018-03-03T08:19:26.062Z,98011.66
2018-03-03T08:21:53.989Z,98001.44
2018-03-03T08:24:21.615Z,98007.71
2018-03-03T08:26:49.167Z,98016.58
2018-03-03T08:29:17.271Z,98025.24
2018-03-03T08:31:46.128Z,98020.48
2018-03-03T08:34:14.602Z,98029.52
2018-03-03T08:36:43.683Z,98024.88
2018-03-03T08:39:11.292Z,98036.88
2018-03-03T08:41:38.938Z,98037.20
2018-03-03T08:44:07.183Z,98041.69
2018-03-03T08:46:35.389Z,98037.88
2018-03-03T08:49:04.264Z,98038.98
2018-03-03T08:51:31.857Z,98056.63
2018-03-03T08:53:59.508Z,98054.91
2018-03-03T08:56:27.862Z,98044.18
2018-03-03T08:58:55.452Z,98037.53
2018-03-03T09:01:23.003Z,98042.57
2018-03-03T09:03:50.804Z,98037.61
2018-03-03T09:06:18.884Z,98026.67
2018-03-03T09:08:46.465Z,98021.02
2018-03-03T09:11:14.745Z,98018.20
2018-03-03T09:13:42.343Z,98015.84
2018-03-03T09:16:09.903Z,98016.77
2018-03-03T09:18:37.519Z,98017.68
2018-03-03T09:21:05.646Z,98016.91
2018-03-03T09:23:33.203Z,98022.91
2018-03-03T09:26:00.813Z,98025.31
2018-03-03T09:28:28.417Z,98031.58
2018-03-03T09:30:56.914Z,98027.14
2018-03-03T09:33:24.553Z,98023.09
2018-03-03T09:35:53.002Z,98034.54
2018-03-03T09:38:20.604Z,98032.05
2018-03-03T09:40:48.161Z,98039.72
2018-03-03T09:43:16.284Z,98039.79
2018-03-03T09:45:43.839Z,98037.72
2018-03-03T09:48:11.436Z,98032.77
2018-03-03T09:50:39.027Z,98029.69
2018-03-03T09:53:06.638Z,98023.79
2018-03-03T09:55:34.802Z,98029.27
2018-03-03T09:58:02.423Z,98030.70
2018-03-03T10:00:30.138Z,98021.23
2018-03-03T10:02:57.751Z,98023.92
2018-03-03T10:05:26.116Z,98024.10
2018-03-03T10:07:54.781Z,98027.71
2018-03-03T10:10:22.352Z,98029.20
2018-03-03T10:12:52.196Z,98028.10
2018-03-03T10:15:19.802Z,98027.84
2018-03-03T10:17:47.349Z,98021.38
2018-03-03T10:20:16.488Z,98024.63
2018-03-03T10:22:44.872Z,98033.72
2018-03-03T10:25:14.372Z,98035.72
2018-03-03T10:27:41.928Z,98035.06
2018-03-03T10:30:09.999Z,98030.36
2018-03-03T10:32:37.547Z,98030.48
2018-03-03T10:35:05.123Z,98029.70
2018-03-03T10:37:32.840Z,98035.53
2018-03-03T10:40:00.945Z,98034.59
2018-03-03T10:42:28.723Z,98030.95
2018-03-03T10:44:56.652Z,98036.03
2018-03-03T10:47:25.168Z,98033.44
2018-03-03T10:49:53.747Z,98030.29
2018-03-03T10:52:21.300Z,98026.84
2018-03-03T10:54:49.683Z,98019.48
2018-03-03T10:57:18.109Z,98016.55
2018-03-03T10:59:45.863Z,98022.27
2018-03-03T11:02:13.417Z,98023.62
2018-03-03T11:04:40.981Z,98026.51
2018-03-03T11:07:08.588Z,98027.73
2018-03-03T11:09:36.197Z,98018.66
2018-03-03T11:12:04.222Z,98014.23
2018-03-03T11:14:31.770Z,98018.09
2018-03-03T11:17:00.042Z,98015.47
2018-03-03T11:19:28.544Z,98014.75
2018-03-03T11:21:57.000Z,98016.11
2018-03-03T11:24:24.560Z,98018.47
2018-03-03T11:26:52.161Z,98016.76
2018-03-03T11:29:20.844Z,98008.92
2018-03-03T11:31:48.442Z,98005.52
2018-03-03T11:34:16.565Z,98002.48
2018-03-03T11:36:45.329Z,97996.00
2018-03-03T11:39:13.321Z,97993.45
2018-03-03T11:41:40.890Z,97990.54
2018-03-03T11:44:08.501Z,97992.38
2018-03-03T11:46:36.058Z,97996.52
2018-03-03T11:49:04.448Z,97995.78
2018-03-03T11:51:32.420Z,97990.63
2018-03-03T11:54:00.217Z,97971.50
2018-03-03T11:56:27.785Z,97973.74
2018-03-03T11:58:55.344Z,97972.91
2018-03-03T12:01:23.250Z,97969.98
2018-03-03T12:03:51.688Z,97973.39
2018-03-03T12:06:19.794Z,97969.83
2018-03-03T12:08:48.060Z,97970.12
2018-03-03T12:11:15.612Z,97964.78
2018-03-03T12:13:43.211Z,97959.99
2018-03-03T12:16:10.816Z,97960.36
2018-03-03T12:18:38.409Z,97949.92
2018-03-03T12:21:06.179Z,97950.70
2018-03-03T12:23:34.752Z,97954.54
2018-03-03T12:26:02.304Z,97951.68
2018-03-03T12:28:29.896Z,97961.84
2018-03-03T12:30:57.461Z,97962.06
2018-03-03T12:33:27.009Z,97956.07
2018-03-03T12:35:54.628Z,97958.86
2018-03-03T12:38:22.184Z,97955.04
2018-03-03T12:40:49.792Z,97958.24
2018-03-03T12:43:17.386Z,97954.86
2018-03-03T12:45:44.946Z,97950.98
2018-03-03T12:48:13.056Z,97950.20
2018-03-03T12:50:41.191Z,97944.92
2018-03-03T12:53:08.784Z,97935.55
2018-03-03T12:55:36.357Z,97939.27
2018-03-03T12:58:03.948Z,97942.86
2018-03-03T13:00:31.515Z,97942.05
2018-03-03T13:02:59.117Z,97931.16
2018-03-03T13:05:26.681Z,97932.33
2018-03-03T13:07:54.294Z,97924.71
2018-03-03T13:10:21.851Z,97929.06
2018-03-03T13:12:50.032Z,97928.85
2018-03-03T13:15:18.405Z,97936.54
2018-03-03T13:17:45.996Z,97941.49
2018-03-03T13:20:13.611Z,97931.18
2018-03-03T13:22:41.178Z,97932.55
2018-03-03T13:25:08.787Z,97923.82
2018-03-03T13:27:36.335Z,97921.14
2018-03-03T13:30:04.379Z,97919.55
2018-03-03T13:32:31.977Z,97921.78
2018-03-03T13:34:59.868Z,97928.48
2018-03-03T13:37:27.972Z,97924.01
2018-03-03T13:39:56.130Z,97924.69
2018-03-03T13:42:23.737Z,97926.53
2018-03-03T13:44:51.288Z,97927.28
2018-03-03T13:47:19.407Z,97921.52
2018-03-03T13:49:47.005Z,97923.09
2018-03-03T13:52:15.192Z,97925.55
2018-03-03T13:54:42.739Z,97917.00
2018-03-03T13:57:11.280Z,97918.38
2018-03-03T13:59:39.286Z,97922.37
2018-03-03T14:02:06.830Z,97935.52
2018-03-03T14:04:34.416Z,97938.53
2018-03-03T14:07:02.294Z,97960.26
2018-03-03T14:09:29.892Z,97952.89
2018-03-03T14:11:57.453Z,97961.41
2018-03-03T14:14:25.062Z,97965.48
2018-03-03T14:16:52.639Z,97980.29
2018-03-03T14:19:20.288Z,97974.62
2018-03-03T14:21:47.889Z,97977.09
2018-03-03T14:24:16.417Z,97985.08
2018-03-03T14:26:45.157Z,97997.73
2018-03-03T14:29:13.997Z,98000.14
2018-03-03T14:31:41.564Z,98005.13
2018-03-03T14:34:09.805Z,98008.08
2018-03-03T14:36:37.358Z,98004.99
2018-03-03T14:39:05.017Z,98003.34
2018-03-03T14:41:32.968Z,98005.22
2018-03-03T14:44:00.538Z,98004.96
2018-03-03T14:46:28.155Z,98007.38
2018-03-03T14:48:56.131Z,98008.84
2018-03-03T14:51:25.107Z,98011.16
2018-03-03T14:53:52.663Z,98020.05
2018-03-03T14:56:20.510Z,98025.91
2018-03-03T14:58:48.128Z,98020.08
2018-03-03T15:01:16.044Z,98022.49
2018-03-03T15:03:43.591Z,98024.33
2018-03-03T15:06:11.919Z,98028.45
2018-03-03T15:08:39.477Z,98028.52
2018-03-03T15:11:08.437Z,98030.45
2018-03-03T15:13:36.057Z,98032.75
2018-03-03T15:16:04.436Z,98022.98
2018-03-03T15:18:32.653Z,98017.76
2018-03-03T15:21:00.650Z,98018.39
2018-03-03T15:23:29.317Z,98019.86
2018-03-03T15:25:57.382Z,98013.00
2018-03-03T15:28:24.973Z,98022.26
2018-03-03T15:30:52.744Z,98015.83
2018-03-03T15:33:20.299Z,98014.28
2018-03-03T15:35:47.842Z,98007.91
2018-03-03T15:38:15.436Z,98007.17
2018-03-03T15:40:42.987Z,98006.86
2018-03-03T15:43:11.030Z,98012.62
2018-03-03T15:45:38.623Z,98010.62
2018-03-03T15:48:06.242Z,98012.97
2018-03-03T15:50:33.824Z,98016.91
2018-03-03T15:53:01.414Z,98011.41
2018-03-03T15:55:30.087Z,98003.31
2018-03-03T15:57:58.786Z,98000.81
2018-03-03T16:00:26.835Z,98008.34
2018-03-03T16:02:54.392Z,98005.83
2018-03-03T16:05:21.954Z,98000.30
2018-03-03T16:07:49.849Z,98016.84
2018-03-03T16:10:17.792Z,98023.11
2018-03-03T16:12:46.588Z,98023.65
2018-03-03T16:15:14.845Z,98026.56
2018-03-03T16:17:44.639Z,98027.50
2018-03-03T16:20:12.243Z,98035.84
2018-03-03T16:22:39.810Z,98033.49
2018-03-03T16:25:08.806Z,98037.88
2018-03-03T16:27:37.338Z,98034.13
2018-03-03T16:30:06.211Z,98038.55
2018-03-03T16:32:34.465Z,98036.50
2018-03-03T16:35:02.973Z,98040.66
2018-03-03T16:37:30.580Z,98052.41
2018-03-03T16:39:59.220Z,98041.78
2018-03-03T16:42:26.840Z,98044.13
2018-03-03T16:44:54.396Z,98042.31
2018-03-03T16:47:22.238Z,98047.48
2018-03-03T16:49:49.845Z,98046.64
2018-03-03T16:52:17.398Z,98045.23
2018-03-03T16:54:44.952Z,98047.23
2018-03-03T16:57:13.466Z,98052.41
2018-03-03T16:59:41.171Z,98053.70
2018-03-03T17:02:08.780Z,98041.97
2018-03-03T17:04:36.853Z,98041.81
2018-03-03T17:07:04.492Z,98047.45
2018-03-03T17:09:33.000Z,98044.94
2018-03-03T17:12:01.124Z,98054.17
2018-03-03T17:14:28.729Z,98054.46
2018-03-03T17:16:56.930Z,98045.73
2018-03-03T17:19:25.322Z,98054.28
2018-03-03T17:21:53.029Z,98060.29
2018-03-03T17:24:21.547Z,98049.82
2018-03-03T17:26:49.098Z,98059.55
2018-03-03T17:29:17.684Z,98054.71
2018-03-03T17:31:45.244Z,98054.39
2018-03-03T17:34:13.686Z,98052.59
2018-03-03T17:36:42.588Z,98063.05
2018-03-03T17:39:10.169Z,98065.81
2018-03-03T17:41:37.723Z,98064.05
2018-03-03T17:44:05.320Z,98062.20
2018-03-03T17:46:32.928Z,98065.14
2018-03-03T17:49:00.496Z,98057.05
2018-03-03T17:51:29.477Z,98055.28
2018-03-03T17:53:57.557Z,98057.21
2018-03-03T17:56:25.130Z,98051.30
2018-03-03T17:58:53.622Z,98060.00
2018-03-03T18:01:22.336Z,98069.00
2018-03-03T18:03:50.717Z,98059.31
2018-03-03T18:06:19.092Z,98054.55
2018-03-03T18:08:46.720Z,98051.28
2018-03-03T18:11:16.473Z,98051.69
2018-03-03T18:13:44.032Z,98055.32
2018-03-03T18:16:12.907Z,98050.14
2018-03-03T18:18:40.677Z,98050.08
2018-03-03T18:21:08.440Z,98049.34
2018-03-03T18:23:36.189Z,98039.91
2018-03-03T18:26:03.771Z,98047.05
2018-03-03T18:28:31.333Z,98055.78
2018-03-03T18:30:59.215Z,98060.92
2018-03-03T18:33:27.849Z,98062.61
2018-03-03T18:35:55.826Z,98056.39
2018-03-03T18:38:23.442Z,98057.51
2018-03-03T18:40:52.227Z,98058.88
2018-03-03T18:43:19.840Z,98062.82
2018-03-03T18:45:47.611Z,98063.69
2018-03-03T18:48:15.218Z,98073.63
2018-03-03T18:50:43.267Z,98076.20
2018-03-03T18:53:10.859Z,98073.77
2018-03-03T18:55:38.472Z,98077.66
2018-03-03T18:58:06.690Z,98076.49
2018-03-03T19:00:35.104Z,98064.03
2018-03-03T19:03:03.703Z,98058.92
2018-03-03T19:05:31.351Z,98056.35
2018-03-03T19:07:59.326Z,98065.19
2018-03-03T19:10:26.932Z,98069.41
2018-03-03T19:12:55.182Z,98063.52
2018-03-03T19:15:24.946Z,98054.16
2018-03-03T19:17:52.776Z,98054.38
2018-03-03T19:20:20.924Z,98055.83
2018-03-03T19:22:50.114Z,98064.98
2018-03-03T19:25:18.981Z,98051.84
2018-03-03T19:27:46.550Z,98051.95
2018-03-03T19:30:15.033Z,98052.85
2018-03-03T19:32:49.022Z,98053.80
2018-03-03T19:35:18.582Z,98055.25
2018-03-03T19:37:46.369Z,98070.39
2018-03-03T19:40:13.932Z,98076.84
2018-03-03T19:42:41.549Z,98071.27
2018-03-03T19:45:09.481Z,98072.78
2018-03-03T19:47:37.808Z,98078.14
2018-03-03T19:50:05.438Z,98079.48
2018-03-03T19:52:34.936Z,98085.62
2018-03-03T19:55:03.422Z,98082.75
2018-03-03T19:57:30.980Z,98076.17
2018-03-03T19:59:59.068Z,98070.55
2018-03-03T20:02:26.681Z,98057.72
2018-03-03T20:04:56.282Z,98040.73
2018-03-03T20:07:24.672Z,98040.05
2018-03-03T20:09:52.243Z,98040.40
2018-03-03T20:12:20.201Z,98048.70
2018-03-03T20:14:48.289Z,98053.14
2018-03-03T20:17:15.896Z,98058.81
2018-03-03T20:19:43.453Z,98067.90
2018-03-03T20:22:12.764Z,98070.77
2018-03-03T20:24:40.365Z,98078.52
2018-03-03T20:27:07.921Z,98079.85
2018-03-03T20:29:35.519Z,98081.36
2018-03-03T20:32:03.107Z,98080.96
2018-03-03T20:34:30.754Z,98084.08
2018-03-03T20:36:59.175Z,98086.09
2018-03-03T20:39:27.637Z,98076.05
2018-03-03T20:41:55.208Z,98076.83
2018-03-03T20:44:22.831Z,98097.12
2018-03-03T20:46:50.391Z,98097.98
2018-03-03T20:49:17.993Z,98085.36
2018-03-03T20:51:46.250Z,98091.28
2018-03-03T20:54:14.267Z,98074.20
2018-03-03T20:56:41.874Z,98073.63
2018-03-03T20:59:09.428Z,98075.04
2018-03-03T21:01:38.008Z,98066.52
2018-03-03T21:04:05.564Z,98054.41
2018-03-03T21:18:35.809Z,98032.55
2018-03-03T21:21:03.350Z,98030.91
2018-03-03T21:23:30.934Z,98030.58
2018-03-03T21:25:58.481Z,98031.25
2018-03-03T21:28:26.018Z,98022.73
2018-03-03T21:30:53.600Z,98018.08
2018-03-03T21:33:21.228Z,98014.90
2018-03-03T21:35:49.007Z,98026.02
2018-03-03T21:38:16.602Z,98001.36
2018-03-03T21:40:44.826Z,98001.70
2018-03-03T21:43:13.383Z,97993.95
2018-03-03T21:45:41.456Z,98001.14
2018-03-03T21:48:09.052Z,97995.84
2018-03-03T21:50:36.669Z,97997.28
2018-03-03T21:53:04.212Z,97994.77
2018-03-03T21:55:31.764Z,97984.20
2018-03-03T21:57:59.621Z,97991.30
2018-03-03T22:00:27.500Z,97993.09
2018-03-03T22:02:55.840Z,97990.21
2018-03-03T22:05:23.484Z,97993.74
2018-03-03T22:07:51.603Z,98000.89
2018-03-03T22:10:19.195Z,97998.27
2018-03-03T22:12:46.775Z,97997.13
2018-03-03T22:15:14.424Z,98002.83
2018-03-03T22:17:42.312Z,98002.34
2018-03-03T22:20:10.757Z,98016.09
2018-03-03T22:22:38.303Z,98020.72
2018-03-03T22:25:05.840Z,97999.34
2018-03-03T22:27:33.432Z,97991.50
2018-03-03T22:30:00.967Z,97980.36
2018-03-03T22:32:28.559Z,97977.36
2018-03-03T22:34:56.108Z,97981.89
2018-03-03T22:37:23.697Z,97989.63
2018-03-03T22:39:51.235Z,97995.63
2018-03-03T22:42:18.813Z,98000.20
2018-03-03T22:44:46.368Z,98003.95
2018-03-03T22:47:13.963Z,98020.55
2018-03-03T22:49:41.508Z,98020.20
2018-03-03T22:52:09.118Z,98000.55
2018-03-03T22:54:36.768Z,98004.95
2018-03-03T22:57:04.956Z,98000.30
2018-03-03T22:59:32.519Z,97981.62
2018-03-03T23:02:00.103Z,97978.68
2018-03-03T23:04:27.652Z,97988.21
2018-03-03T23:06:55.240Z,97980.42
2018-03-03T23:09:22.896Z,97985.25
2018-03-03T23:11:50.479Z,97969.30
2018-03-03T23:14:18.064Z,97940.63
2018-03-03T23:16:45.704Z,97937.02
2018-03-03T23:19:13.300Z,97929.06
2018-03-03T23:21:40.838Z,97959.17
2018-03-03T23:24:08.416Z,97983.05
2018-03-03T23:26:36.015Z,97983.84
2018-03-03T23:29:03.656Z,97982.22
2018-03-03T23:31:31.210Z,97988.97
2018-03-03T23:33:59.651Z,97973.34
2018-03-03T23:36:27.207Z,97967.90
2018-03-03T23:38:54.794Z,97969.78
2018-03-03T23:41:22.394Z,97967.13
2018-03-03T23:43:49.999Z,97976.27
2018-03-03T23:46:17.783Z,97953.73
2018-03-03T23:48:45.442Z,97956.16
2018-03-03T23:51:13.035Z,97957.48
2018-03-03T23:53:40.576Z,97956.94
2018-03-03T23:56:08.203Z,97955.48
2018-03-03T23:58:35.739Z,97933.44
